Time;durP1;ratioP1;P1;durP2;ratioP2;P2;SDS_P1;SDS_P2;PMS_P1;PMS_P2;Temp;Humidity;BMP_temperature;BMP_pressure;BME280_temperature;BME280_humidity;BME280_pressure;Samples;Min_cycle;Max_cycle;Signal;HPM_P1;HPM_P2
2022/01/28 00:01:57;;;;;;;423.50;218.40;;;;;;;;;;5075473;28;20052;-61
2022/01/28 00:04:23;;;;;;;408.45;203.10;;;;;;;;;;5076545;28;20444;-61
2022/01/28 00:06:49;;;;;;;392.90;206.85;;;;;;;;;;5075739;28;20021;-61
2022/01/28 00:09:15;;;;;;;394.08;198.38;;;;;;;;;;5075650;28;20073;-57
2022/01/28 00:11:41;;;;;;;373.27;188.60;;;;;;;;;;5075659;28;20065;-60
2022/01/28 00:15:19;;;;;;;420.27;214.52;;;;;;;;;;5075916;28;20016;-61
2022/01/28 00:38:54;;;;;;;383.23;192.15;;;;;;;;;;5075360;28;20032;-60
2022/01/28 00:41:20;;;;;;;395.35;203.77;;;;;;;;;;5075459;28;20034;-59
2022/01/28 00:43:46;;;;;;;332.52;156.10;;;;;;;;;;5074939;28;20095;-61
2022/01/28 00:46:12;;;;;;;271.40;130.95;;;;;;;;;;5075133;28;20020;-61
2022/01/28 00:48:38;;;;;;;256.50;126.00;;;;;;;;;;5075123;28;20055;-60
2022/01/28 00:51:05;;;;;;;227.77;112.03;;;;;;;;;;5074230;28;20457;-61
2022/01/28 00:53:31;;;;;;;226.18;110.13;;;;;;;;;;5075072;28;20103;-61
2022/01/28 00:55:57;;;;;;;191.13;94.15;;;;;;;;;;5074978;28;20019;-63
2022/01/28 00:58:24;;;;;;;174.13;85.07;;;;;;;;;;5074663;28;20046;-59
2022/01/28 01:00:51;;;;;;;166.73;83.47;;;;;;;;;;5074482;28;20035;-60
2022/01/28 01:03:17;;;;;;;231.07;111.78;;;;;;;;;;5075073;28;20028;-58
2022/01/28 01:05:43;;;;;;;240.73;118.40;;;;;;;;;;5073148;28;20021;-60
2022/01/28 01:08:10;;;;;;;264.50;128.65;;;;;;;;;;5074467;28;20017;-61
2022/01/28 01:10:36;;;;;;;246.68;119.70;;;;;;;;;;5074327;28;20408;-61
2022/01/28 01:13:03;;;;;;;231.82;113.05;;;;;;;;;;5074076;28;20031;-61
2022/01/28 01:15:35;;;;;;;237.18;115.38;;;;;;;;;;5074334;28;20059;-61
2022/01/28 01:18:44;;;;;;;250.48;119.72;;;;;;;;;;5074428;28;20476;-59
2022/01/28 01:21:07;;;;;;;223.80;104.57;;;;;;;;;;5071832;28;20480;-64
2022/01/28 01:23:37;;;;;;;233.52;106.38;;;;;;;;;;5074435;28;20021;-61
2022/01/28 01:28:33;;;;;;;225.52;105.10;;;;;;;;;;5074349;28;20408;-59
2022/01/28 01:31:03;;;;;;;215.65;102.47;;;;;;;;;;5074756;28;20016;-58
2022/01/28 01:33:33;;;;;;;225.90;108.15;;;;;;;;;;5073682;28;20023;-61
2022/01/28 01:35:59;;;;;;;311.65;151.82;;;;;;;;;;5074266;28;20044;-63
2022/01/28 01:38:28;;;;;;;322.45;164.77;;;;;;;;;;5074221;28;20012;-61
2022/01/28 01:40:58;;;;;;;319.67;157.38;;;;;;;;;;5073637;28;20035;-62
2022/01/28 01:53:58;;;;;;;331.63;158.32;;;;;;;;;;5073430;28;20112;-61
2022/01/28 01:56:25;;;;;;;325.25;156.05;;;;;;;;;;5073650;28;20383;-58
2022/01/28 01:58:51;;;;;;;291.38;144.55;;;;;;;;;;5073650;28;20041;-61
2022/01/28 02:01:17;;;;;;;292.23;143.93;;;;;;;;;;5073187;28;20547;-61
2022/01/28 02:03:43;;;;;;;476.38;210.90;;;;;;;;;;5073367;28;20025;-58
2022/01/28 02:06:10;;;;;;;315.25;148.40;;;;;;;;;;5073936;28;20024;-59
2022/01/28 02:08:37;;;;;;;270.98;128.63;;;;;;;;;;5073530;28;20024;-62
2022/01/28 02:11:03;;;;;;;237.43;106.80;;;;;;;;;;5073781;28;20083;-60
2022/01/28 02:13:30;;;;;;;184.40;86.28;;;;;;;;;;5074251;28;20020;-59
2022/01/28 02:15:57;;;;;;;188.60;85.32;;;;;;;;;;5073441;28;20028;-60
2022/01/28 02:18:24;;;;;;;150.57;70.13;;;;;;;;;;5073749;28;20352;-60
2022/01/28 02:20:54;;;;;;;143.65;65.97;;;;;;;;;;5073534;28;20446;-61
2022/01/28 02:23:21;;;;;;;189.77;78.18;;;;;;;;;;5073463;28;20016;-61
2022/01/28 02:25:47;;;;;;;159.80;69.05;;;;;;;;;;5073219;28;20357;-56
2022/01/28 02:28:17;;;;;;;139.90;64.72;;;;;;;;;;5072300;28;20070;-58
2022/01/28 02:30:43;;;;;;;144.18;68.38;;;;;;;;;;5073190;28;20056;-61
2022/01/28 02:33:15;;;;;;;148.10;67.22;;;;;;;;;;5073619;28;20022;-60
2022/01/28 02:35:43;;;;;;;162.27;72.60;;;;;;;;;;5073243;28;20062;-61
2022/01/28 02:38:10;;;;;;;197.23;93.65;;;;;;;;;;5073115;28;20051;-60
2022/01/28 02:40:38;;;;;;;232.07;106.78;;;;;;;;;;5073260;28;20021;-64
2022/01/28 02:43:32;;;;;;;266.17;125.43;;;;;;;;;;5072667;28;20028;-64
2022/01/28 02:45:53;;;;;;;258.73;119.10;;;;;;;;;;5073334;28;20053;-60
2022/01/28 02:48:24;;;;;;;257.40;119.05;;;;;;;;;;5074219;28;20081;-63
2022/01/28 02:53:28;;;;;;;231.88;107.10;;;;;;;;;;5073423;28;20346;-61
2022/01/28 02:56:03;;;;;;;235.60;105.45;;;;;;;;;;5073206;28;20518;-61
2022/01/28 02:58:29;;;;;;;221.95;106.32;;;;;;;;;;5073040;28;20457;-59
2022/01/28 03:00:57;;;;;;;223.40;103.90;;;;;;;;;;5073345;28;20090;-59
2022/01/28 03:03:23;;;;;;;229.20;104.93;;;;;;;;;;5072688;28;20021;-61
2022/01/28 03:05:53;;;;;;;215.05;101.82;;;;;;;;;;5073547;28;20066;-57
2022/01/28 03:08:26;;;;;;;195.23;94.32;;;;;;;;;;5073238;28;20085;-61
2022/01/28 03:16:05;;;;;;;195.45;90.40;;;;;;;;;;5076910;28;20028;-61
2022/01/28 03:18:41;;;;;;;191.45;92.25;;;;;;;;;;5076639;28;20021;-61
2022/01/28 03:21:19;;;;;;;178.85;84.00;;;;;;;;;;5076777;28;20469;-59
2022/01/28 03:23:46;;;;;;;175.70;80.45;;;;;;;;;;5076761;28;20024;-61
2022/01/28 03:26:13;;;;;;;189.65;87.40;;;;;;;;;;5076375;28;20016;-60
2022/01/28 03:28:39;;;;;;;175.90;82.72;;;;;;;;;;5076944;28;20017;-60
2022/01/28 03:31:06;;;;;;;165.18;78.53;;;;;;;;;;5076197;28;20025;-60
2022/01/28 03:33:32;;;;;;;163.43;79.65;;;;;;;;;;5076246;28;20016;-60
2022/01/28 03:36:01;;;;;;;165.23;78.55;;;;;;;;;;5076554;28;20074;-63
2022/01/28 03:38:27;;;;;;;177.00;78.25;;;;;;;;;;5076207;28;20013;-61
2022/01/28 03:40:56;;;;;;;179.95;85.55;;;;;;;;;;5076515;28;20024;-60
2022/01/28 03:43:23;;;;;;;181.43;83.53;;;;;;;;;;5076121;28;20027;-60
2022/01/28 03:45:49;;;;;;;193.75;89.88;;;;;;;;;;5076009;28;20023;-62
2022/01/28 03:48:15;;;;;;;184.35;87.00;;;;;;;;;;5076350;28;20016;-61
2022/01/28 03:50:42;;;;;;;201.80;90.05;;;;;;;;;;5076319;28;20449;-59
2022/01/28 03:53:09;;;;;;;171.20;74.78;;;;;;;;;;5076042;28;20021;-60
2022/01/28 03:55:35;;;;;;;141.40;64.15;;;;;;;;;;5075944;28;20020;-61
2022/01/28 03:58:02;;;;;;;122.15;58.50;;;;;;;;;;5076134;28;20056;-59
2022/01/28 04:00:30;;;;;;;123.20;57.30;;;;;;;;;;5075438;28;20035;-61
2022/01/28 04:03:08;;;;;;;122.35;54.97;;;;;;;;;;5076634;28;20025;-61
2022/01/28 04:11:31;;;;;;;113.97;51.78;;;;;;;;;;5075653;28;20078;-60
2022/01/28 04:14:01;;;;;;;120.75;55.50;;;;;;;;;;5075835;28;20012;-60
2022/01/28 04:19:12;;;;;;;153.25;66.78;;;;;;;;;;5075958;28;20035;-60
2022/01/28 04:21:38;;;;;;;238.40;103.03;;;;;;;;;;5075049;28;20035;-59
2022/01/28 04:24:04;;;;;;;339.05;133.45;;;;;;;;;;5075270;28;20017;-61
2022/01/28 04:26:30;;;;;;;179.25;76.78;;;;;;;;;;5075033;28;20091;-60
2022/01/28 04:28:56;;;;;;;196.32;83.10;;;;;;;;;;5075219;28;20039;-60
2022/01/28 04:31:23;;;;;;;165.88;77.00;;;;;;;;;;5075202;28;20099;-60
2022/01/28 04:33:49;;;;;;;127.28;58.90;;;;;;;;;;5074159;28;20449;-63
2022/01/28 04:36:17;;;;;;;129.65;57.33;;;;;;;;;;5075133;28;20361;-60
2022/01/28 04:38:52;;;;;;;122.20;55.28;;;;;;;;;;5075389;28;20040;-60
2022/01/28 04:41:38;;;;;;;113.70;52.05;;;;;;;;;;5075289;28;20400;-60
2022/01/28 04:44:15;;;;;;;116.25;52.85;;;;;;;;;;5075199;28;20090;-61
2022/01/28 04:46:59;;;;;;;122.13;53.08;;;;;;;;;;5075469;28;20468;-60
2022/01/28 04:49:39;;;;;;;110.53;52.33;;;;;;;;;;5075017;28;20115;-61
2022/01/28 04:57:39;;;;;;;127.40;56.70;;;;;;;;;;5074178;28;20013;-62
2022/01/28 05:00:41;;;;;;;109.97;52.47;;;;;;;;;;5075333;28;20020;-62
2022/01/28 05:05:59;;;;;;;116.00;51.72;;;;;;;;;;5074811;28;20024;-60
2022/01/28 05:14:44;;;;;;;154.05;66.35;;;;;;;;;;5071335;28;20039;-62
2022/01/28 05:27:54;;;;;;;175.43;77.95;;;;;;;;;;5074140;28;20114;-61
2022/01/28 05:30:21;;;;;;;166.52;77.15;;;;;;;;;;5073994;28;20025;-61
2022/01/28 05:32:47;;;;;;;179.90;78.13;;;;;;;;;;5074031;28;20025;-62
2022/01/28 05:35:13;;;;;;;178.98;76.50;;;;;;;;;;5074200;28;20077;-62
2022/01/28 05:37:39;;;;;;;172.32;72.60;;;;;;;;;;5072753;28;20020;-61
2022/01/28 05:40:05;;;;;;;157.15;70.53;;;;;;;;;;5074037;28;20025;-61
2022/01/28 05:42:32;;;;;;;133.05;56.60;;;;;;;;;;5073815;28;20012;-59
2022/01/28 05:44:58;;;;;;;125.93;58.92;;;;;;;;;;5073711;28;20480;-62
2022/01/28 05:47:24;;;;;;;129.05;57.25;;;;;;;;;;5073837;28;20453;-62
2022/01/28 05:49:51;;;;;;;140.02;58.78;;;;;;;;;;5073732;28;20039;-62
2022/01/28 05:52:17;;;;;;;129.75;56.47;;;;;;;;;;5073695;28;20108;-63
2022/01/28 05:54:43;;;;;;;128.50;56.78;;;;;;;;;;5074194;28;20024;-60
2022/01/28 05:57:09;;;;;;;118.30;53.13;;;;;;;;;;5073747;28;20047;-61
2022/01/28 05:59:35;;;;;;;110.32;50.45;;;;;;;;;;5073708;28;20044;-61
2022/01/28 06:02:02;;;;;;;116.55;50.88;;;;;;;;;;5073595;28;20407;-62
2022/01/28 06:04:28;;;;;;;142.82;65.10;;;;;;;;;;5073677;28;20020;-60
2022/01/28 06:06:54;;;;;;;209.82;93.97;;;;;;;;;;5073489;28;20360;-62
2022/01/28 06:09:20;;;;;;;163.65;72.47;;;;;;;;;;5073675;28;20371;-61
2022/01/28 06:11:47;;;;;;;160.63;73.82;;;;;;;;;;5073460;28;20502;-61
2022/01/28 06:14:13;;;;;;;143.68;65.55;;;;;;;;;;5072792;28;20021;-61
2022/01/28 06:16:39;;;;;;;168.23;75.38;;;;;;;;;;5073484;28;20021;-63
2022/01/28 06:19:05;;;;;;;158.48;74.07;;;;;;;;;;5073674;28;20044;-61
2022/01/28 06:21:31;;;;;;;183.00;79.43;;;;;;;;;;5073004;28;20028;-62
2022/01/28 06:23:58;;;;;;;239.10;95.60;;;;;;;;;;5072823;28;20035;-61
2022/01/28 06:26:24;;;;;;;179.00;83.20;;;;;;;;;;5072513;28;20025;-61
2022/01/28 06:28:50;;;;;;;202.35;89.07;;;;;;;;;;5073898;28;20575;-62
2022/01/28 06:31:17;;;;;;;150.57;71.97;;;;;;;;;;5073747;28;20086;-61
2022/01/28 06:33:43;;;;;;;252.85;105.20;;;;;;;;;;5073254;28;20016;-61
2022/01/28 06:36:09;;;;;;;267.08;103.00;;;;;;;;;;5073249;28;20016;-61
2022/01/28 06:38:36;;;;;;;153.75;66.60;;;;;;;;;;5073491;28;20017;-61
2022/01/28 06:41:02;;;;;;;136.35;60.53;;;;;;;;;;5073075;28;20094;-61
2022/01/28 06:43:29;;;;;;;133.95;60.53;;;;;;;;;;5073149;28;20103;-60
2022/01/28 06:45:55;;;;;;;135.88;61.42;;;;;;;;;;5073202;28;20350;-60
2022/01/28 06:48:21;;;;;;;144.82;63.63;;;;;;;;;;5074048;28;20354;-61
2022/01/28 06:50:48;;;;;;;142.68;61.97;;;;;;;;;;5077081;28;20119;-61
2022/01/28 06:53:15;;;;;;;130.23;57.40;;;;;;;;;;5077007;28;20024;-61
2022/01/28 06:55:41;;;;;;;127.25;60.20;;;;;;;;;;5076111;28;20055;-60
2022/01/28 06:58:08;;;;;;;128.60;58.28;;;;;;;;;;5077127;28;20494;-61
2022/01/28 07:00:37;;;;;;;119.85;54.47;;;;;;;;;;5077105;28;20365;-59
2022/01/28 07:03:04;;;;;;;127.35;57.55;;;;;;;;;;5076499;28;20024;-61
2022/01/28 07:05:31;;;;;;;114.82;56.03;;;;;;;;;;5077064;28;20012;-63
2022/01/28 07:07:57;;;;;;;133.68;60.65;;;;;;;;;;5076761;28;20015;-62
2022/01/28 07:10:23;;;;;;;123.82;55.53;;;;;;;;;;5076705;28;20346;-62
2022/01/28 07:12:50;;;;;;;119.20;53.42;;;;;;;;;;5076914;28;20024;-60
2022/01/28 07:15:16;;;;;;;119.07;55.20;;;;;;;;;;5076947;28;20100;-60
2022/01/28 07:17:42;;;;;;;185.70;77.93;;;;;;;;;;5076366;28;20023;-61
2022/01/28 07:20:09;;;;;;;200.73;85.80;;;;;;;;;;5076577;28;20093;-62
2022/01/28 07:22:35;;;;;;;188.32;82.95;;;;;;;;;;5075496;28;20020;-60
2022/01/28 07:25:01;;;;;;;178.25;78.93;;;;;;;;;;5074498;28;20020;-60
2022/01/28 07:27:27;;;;;;;176.90;81.28;;;;;;;;;;5076736;28;20095;-63
2022/01/28 07:29:53;;;;;;;163.00;73.97;;;;;;;;;;5076304;28;20086;-61
2022/01/28 07:32:19;;;;;;;161.00;76.93;;;;;;;;;;5077075;28;20068;-61
2022/01/28 07:34:47;;;;;;;159.18;73.82;;;;;;;;;;5076321;28;20029;-61
2022/01/28 07:37:13;;;;;;;136.95;65.85;;;;;;;;;;5076231;28;20035;-62
2022/01/28 07:39:39;;;;;;;138.38;65.13;;;;;;;;;;5076412;28;20016;-63
2022/01/28 07:42:06;;;;;;;123.55;60.13;;;;;;;;;;5076064;28;20092;-63
2022/01/28 07:44:32;;;;;;;121.15;59.80;;;;;;;;;;5076241;28;20187;-61
2022/01/28 07:46:58;;;;;;;137.55;65.57;;;;;;;;;;5075797;28;20065;-61
2022/01/28 07:49:24;;;;;;;142.82;68.10;;;;;;;;;;5076059;28;20069;-62
2022/01/28 07:51:50;;;;;;;150.80;72.03;;;;;;;;;;5075325;28;20025;-64
2022/01/28 07:54:16;;;;;;;150.63;75.43;;;;;;;;;;5075971;28;20021;-62
2022/01/28 07:56:45;;;;;;;143.40;72.50;;;;;;;;;;5075877;28;20070;-59
2022/01/28 07:59:12;;;;;;;145.63;72.25;;;;;;;;;;5075435;28;20049;-59
2022/01/28 08:01:38;;;;;;;148.02;70.18;;;;;;;;;;5075135;28;20028;-62
2022/01/28 08:04:04;;;;;;;148.00;67.47;;;;;;;;;;5075015;28;20013;-61
2022/01/28 08:06:30;;;;;;;136.10;62.70;;;;;;;;;;5075399;28;20099;-62
2022/01/28 08:08:59;;;;;;;127.72;59.10;;;;;;;;;;5076229;28;20012;-63
2022/01/28 08:11:25;;;;;;;124.20;58.17;;;;;;;;;;5075237;28;20021;-60
2022/01/28 08:13:52;;;;;;;122.97;57.83;;;;;;;;;;5075590;28;20370;-61
2022/01/28 08:16:18;;;;;;;114.68;56.42;;;;;;;;;;5075748;28;20442;-62
2022/01/28 08:18:44;;;;;;;105.63;52.30;;;;;;;;;;5075422;28;20025;-62
2022/01/28 08:21:10;;;;;;;112.63;53.80;;;;;;;;;;5076150;28;20028;-65
2022/01/28 08:23:36;;;;;;;115.78;57.05;;;;;;;;;;5075697;28;20534;-62
2022/01/28 08:26:03;;;;;;;121.13;57.67;;;;;;;;;;5075222;28;20029;-62
2022/01/28 08:28:29;;;;;;;163.32;79.80;;;;;;;;;;5075523;28;20445;-61
2022/01/28 08:30:55;;;;;;;165.95;79.13;;;;;;;;;;5075538;28;20087;-63
2022/01/28 08:33:22;;;;;;;152.35;76.40;;;;;;;;;;5074280;28;20020;-63
2022/01/28 08:35:52;;;;;;;145.10;70.65;;;;;;;;;;5076036;28;20352;-60
2022/01/28 08:38:26;;;;;;;138.80;70.07;;;;;;;;;;5075263;28;20517;-63
2022/01/28 08:40:53;;;;;;;199.25;99.72;;;;;;;;;;5074844;28;20028;-63
2022/01/28 08:43:20;;;;;;;203.45;101.63;;;;;;;;;;5075244;28;20033;-61
2022/01/28 08:45:46;;;;;;;296.67;149.35;;;;;;;;;;5075125;28;20024;-61
2022/01/28 08:48:12;;;;;;;277.58;137.15;;;;;;;;;;5074522;28;20029;-62
2022/01/28 08:50:39;;;;;;;307.85;160.15;;;;;;;;;;5075122;28;20021;-60
2022/01/28 08:53:06;;;;;;;332.85;171.82;;;;;;;;;;5075195;28;20055;-61
2022/01/28 08:55:32;;;;;;;362.42;191.73;;;;;;;;;;5074488;28;20466;-62
2022/01/28 08:57:58;;;;;;;371.20;194.63;;;;;;;;;;5074609;28;20063;-59
2022/01/28 09:00:24;;;;;;;345.42;178.85;;;;;;;;;;5074585;28;20017;-60
2022/01/28 09:02:51;;;;;;;329.05;168.80;;;;;;;;;;5075129;28;20043;-58
2022/01/28 09:05:18;;;;;;;319.58;164.90;;;;;;;;;;5074858;28;20016;-57
2022/01/28 09:07:44;;;;;;;320.25;162.10;;;;;;;;;;5074646;28;20017;-51
2022/01/28 09:10:18;;;;;;;209.15;107.25;;;;;;;;;;5074688;28;20029;-54
2022/01/28 09:15:46;;;;;;;184.10;91.40;;;;;;;;;;5031994;28;20029;-56
2022/01/28 09:18:13;;;;;;;155.65;79.63;;;;;;;;;;5065502;28;20097;-54
2022/01/28 09:20:39;;;;;;;151.20;76.13;;;;;;;;;;5074555;28;20059;-52
2022/01/28 09:23:06;;;;;;;130.15;63.00;;;;;;;;;;5072945;28;20024;-55
2022/01/28 13:02:18;;;;;;;71.30;37.97;;;;;;;;;;4591508;23;20057;-57
2022/01/28 13:10:23;;;;;;;90.40;49.97;;;;;;;;;;5032357;28;20079;-58
2022/01/28 13:12:49;;;;;;;95.55;50.10;;;;;;;;;;5034847;28;20025;-60
2022/01/28 13:15:16;;;;;;;93.15;46.38;;;;;;;;;;5035196;28;20369;-60
2022/01/28 13:17:51;;;;;;;93.22;46.92;;;;;;;;;;5034104;28;20041;-57
2022/01/28 13:20:18;;;;;;;98.15;49.88;;;;;;;;;;5034757;28;20044;-57
2022/01/28 13:22:49;;;;;;;90.32;49.30;;;;;;;;;;5033991;28;20030;-56
2022/01/28 13:25:19;;;;;;;108.63;52.20;;;;;;;;;;5034045;28;20025;-55
2022/01/28 13:27:47;;;;;;;75.30;41.70;;;;;;;;;;5034440;28;20040;-57
2022/01/28 13:30:15;;;;;;;81.00;42.90;;;;;;;;;;5033919;28;20118;-59
2022/01/28 13:32:44;;;;;;;90.47;44.95;;;;;;;;;;5032747;28;20512;-58
2022/01/28 13:35:14;;;;;;;90.40;45.80;;;;;;;;;;5033028;28;20024;-57
2022/01/28 13:37:46;;;;;;;78.90;43.57;;;;;;;;;;5032775;28;20022;-58
2022/01/28 13:40:13;;;;;;;88.78;46.72;;;;;;;;;;5033808;28;20029;-59
2022/01/28 13:43:03;;;;;;;83.22;46.92;;;;;;;;;;5033093;28;20084;-59
2022/01/28 13:45:44;;;;;;;97.07;49.08;;;;;;;;;;5025793;28;20033;-58
2022/01/28 13:48:14;;;;;;;85.10;47.17;;;;;;;;;;5034017;28;20331;-59
2022/01/28 13:50:44;;;;;;;89.00;46.85;;;;;;;;;;5033808;28;20511;-59
2022/01/28 13:56:13;;;;;;;95.00;50.53;;;;;;;;;;5032241;28;20025;-57
2022/01/28 13:58:48;;;;;;;100.22;50.83;;;;;;;;;;5032461;28;20029;-58
2022/01/28 14:01:14;;;;;;;93.28;48.78;;;;;;;;;;5032924;28;20025;-60
2022/01/28 14:03:51;;;;;;;93.38;49.90;;;;;;;;;;5032224;28;20116;-60
2022/01/28 14:06:18;;;;;;;91.57;49.75;;;;;;;;;;5032302;28;20022;-58
2022/01/28 14:08:47;;;;;;;82.18;45.88;;;;;;;;;;5032345;28;20092;-58
2022/01/28 14:11:26;;;;;;;92.32;47.58;;;;;;;;;;5033497;28;20025;-60
2022/01/28 14:16:58;;;;;;;89.75;46.92;;;;;;;;;;5032822;28;20033;-57
2022/01/28 14:19:25;;;;;;;89.03;45.53;;;;;;;;;;5033703;28;20021;-60
2022/01/28 14:21:51;;;;;;;96.32;50.33;;;;;;;;;;5033208;28;20053;-59
2022/01/28 14:24:22;;;;;;;103.55;53.30;;;;;;;;;;5033603;28;20053;-60
2022/01/28 14:27:11;;;;;;;92.80;49.10;;;;;;;;;;5032973;28;20025;-60
2022/01/28 14:32:09;;;;;;;84.53;45.53;;;;;;;;;;5033238;28;20041;-57
2022/01/28 14:34:36;;;;;;;79.20;45.40;;;;;;;;;;5033187;28;20278;-60
2022/01/28 14:37:03;;;;;;;88.28;45.80;;;;;;;;;;5032999;28;20025;-58
2022/01/28 14:39:29;;;;;;;130.93;62.17;;;;;;;;;;5032437;28;20029;-59
2022/01/28 14:42:01;;;;;;;108.20;54.63;;;;;;;;;;5031819;28;20030;-58
2022/01/28 14:44:28;;;;;;;107.80;56.22;;;;;;;;;;5033772;28;20018;-58
2022/01/28 14:46:54;;;;;;;115.85;57.95;;;;;;;;;;5033097;28;20083;-58
2022/01/28 14:49:20;;;;;;;82.38;45.58;;;;;;;;;;5032820;28;20083;-55
2022/01/28 14:51:52;;;;;;;81.20;44.75;;;;;;;;;;5033504;28;20029;-63
2022/01/28 14:54:19;;;;;;;91.20;48.10;;;;;;;;;;5033390;28;20064;-59
2022/01/28 14:56:45;;;;;;;78.70;42.35;;;;;;;;;;5033066;28;20400;-60
2022/01/28 14:59:11;;;;;;;71.80;39.30;;;;;;;;;;5033307;28;20101;-59
2022/01/28 15:01:37;;;;;;;83.43;44.90;;;;;;;;;;5032931;28;20043;-58
2022/01/28 15:04:03;;;;;;;81.70;43.70;;;;;;;;;;5034422;28;20119;-56
2022/01/28 15:06:30;;;;;;;78.25;42.67;;;;;;;;;;5031554;28;20030;-61
2022/01/28 15:09:00;;;;;;;93.82;47.20;;;;;;;;;;5031770;28;20009;-60
2022/01/28 15:11:44;;;;;;;86.05;44.97;;;;;;;;;;5035428;28;20040;-63
2022/01/28 15:14:10;;;;;;;81.50;42.15;;;;;;;;;;5030021;28;20030;-57
2022/01/28 15:16:43;;;;;;;76.90;39.90;;;;;;;;;;5033459;28;20021;-60
2022/01/28 15:19:12;;;;;;;75.13;39.85;;;;;;;;;;5034538;28;20022;-62
2022/01/28 15:21:41;;;;;;;;;;;;;;;;;;5035643;28;20588;-63
2022/01/28 15:24:29;;;;;;;69.07;35.42;;;;;;;;;;5034990;28;19931;-62
2022/01/28 15:27:05;;;;;;;68.25;34.92;;;;;;;;;;5036554;28;20515;-66
2022/01/28 15:29:45;;;;;;;61.97;34.47;;;;;;;;;;5036265;28;20029;-61
2022/01/28 15:37:28;;;;;;;72.97;39.47;;;;;;;;;;5034990;28;20037;-60
2022/01/28 15:39:54;;;;;;;86.78;43.50;;;;;;;;;;5034665;28;20041;-60
2022/01/28 15:42:21;;;;;;;86.00;42.63;;;;;;;;;;5035056;28;20032;-62
2022/01/28 15:44:47;;;;;;;77.97;40.65;;;;;;;;;;5034747;28;20112;-61
2022/01/28 15:47:14;;;;;;;72.07;39.60;;;;;;;;;;5034685;28;20048;-61
2022/01/28 15:49:43;;;;;;;62.22;34.63;;;;;;;;;;5032545;28;20022;-56
2022/01/28 15:52:10;;;;;;;77.72;40.28;;;;;;;;;;5034962;28;20053;-57
2022/01/28 15:54:36;;;;;;;73.55;39.92;;;;;;;;;;5036068;28;20048;-62
2022/01/28 15:57:02;;;;;;;77.28;41.97;;;;;;;;;;5036468;28;20037;-61
2022/01/28 15:59:29;;;;;;;79.57;41.13;;;;;;;;;;5035338;28;20022;-59
2022/01/28 16:01:55;;;;;;;70.53;37.88;;;;;;;;;;5035638;28;20366;-60
2022/01/28 16:04:21;;;;;;;73.18;38.33;;;;;;;;;;5035395;28;20128;-60
2022/01/28 16:06:49;;;;;;;73.00;35.90;;;;;;;;;;5035354;28;20025;-58
2022/01/28 16:09:16;;;;;;;78.15;36.85;;;;;;;;;;5035999;28;20033;-59
2022/01/28 16:11:50;;;;;;;75.40;38.08;;;;;;;;;;5035573;28;20033;-58
2022/01/28 16:14:46;;;;;;;69.53;37.25;;;;;;;;;;5033968;28;20029;-63
2022/01/28 16:17:37;;;;;;;70.10;41.05;;;;;;;;;;5030187;28;20036;-65
2022/01/28 16:20:03;;;;;;;77.07;41.85;;;;;;;;;;5033771;28;20037;-58
2022/01/28 16:22:30;;;;;;;77.82;41.95;;;;;;;;;;5016304;28;20021;-60
2022/01/28 16:24:56;;;;;;;76.10;41.70;;;;;;;;;;5035254;28;20029;-61
2022/01/28 16:27:22;;;;;;;81.32;40.75;;;;;;;;;;5033732;28;20024;-63
2022/01/28 16:29:48;;;;;;;78.57;40.38;;;;;;;;;;5035134;28;20028;-59
2022/01/28 16:32:14;;;;;;;88.47;44.55;;;;;;;;;;5035283;28;20034;-61
2022/01/28 16:34:40;;;;;;;85.63;43.60;;;;;;;;;;5033941;28;20079;-62
2022/01/28 16:37:06;;;;;;;81.70;41.95;;;;;;;;;;5034947;28;20030;-61
2022/01/28 16:39:36;;;;;;;87.25;47.05;;;;;;;;;;5034221;28;20026;-57
2022/01/28 16:42:06;;;;;;;94.47;46.88;;;;;;;;;;5035116;28;20385;-57
2022/01/28 16:44:34;;;;;;;81.85;44.70;;;;;;;;;;5034333;28;20469;-57
2022/01/28 16:47:00;;;;;;;101.75;52.70;;;;;;;;;;5034302;28;20171;-61
2022/01/28 16:49:27;;;;;;;97.38;49.13;;;;;;;;;;5033760;28;20554;-64
2022/01/28 16:51:53;;;;;;;88.15;43.92;;;;;;;;;;5033722;28;20033;-62
2022/01/28 16:54:19;;;;;;;90.22;46.05;;;;;;;;;;5034687;28;20033;-61
2022/01/28 16:56:45;;;;;;;67.72;35.22;;;;;;;;;;5035085;28;20089;-58
2022/01/28 16:59:12;;;;;;;62.28;34.50;;;;;;;;;;5034733;28;20029;-58
2022/01/28 17:01:38;;;;;;;70.03;37.20;;;;;;;;;;5034516;28;20029;-59
2022/01/28 17:04:04;;;;;;;207.40;88.70;;;;;;;;;;5035177;28;20481;-60
2022/01/28 17:06:33;;;;;;;114.35;56.40;;;;;;;;;;5034289;28;20091;-60
2022/01/28 17:09:00;;;;;;;76.10;41.55;;;;;;;;;;5034209;28;20013;-60
2022/01/28 17:11:40;;;;;;;83.85;45.83;;;;;;;;;;5034820;28;20116;-57
2022/01/28 17:14:07;;;;;;;86.40;45.40;;;;;;;;;;5034429;28;20389;-59
2022/01/28 17:16:33;;;;;;;94.75;48.50;;;;;;;;;;5034080;28;20462;-60
2022/01/28 17:18:59;;;;;;;87.05;47.42;;;;;;;;;;5034304;28;20394;-55
2022/01/28 17:21:26;;;;;;;90.40;47.22;;;;;;;;;;5034367;28;20033;-60
2022/01/28 17:23:52;;;;;;;95.32;49.35;;;;;;;;;;5033764;28;20496;-60
2022/01/28 17:26:18;;;;;;;99.47;48.13;;;;;;;;;;5034432;28;20029;-58
2022/01/28 17:28:45;;;;;;;95.22;50.47;;;;;;;;;;5034101;28;20017;-57
2022/01/28 17:31:11;;;;;;;105.43;51.95;;;;;;;;;;5034388;28;20117;-60
2022/01/28 17:33:38;;;;;;;100.43;51.92;;;;;;;;;;5034645;28;20068;-59
2022/01/28 17:36:05;;;;;;;108.03;54.60;;;;;;;;;;5033791;28;20025;-58
2022/01/28 17:38:33;;;;;;;106.72;51.38;;;;;;;;;;5033991;28;20423;-60
2022/01/28 17:41:00;;;;;;;97.72;50.83;;;;;;;;;;5033441;28;20077;-59
2022/01/28 17:43:27;;;;;;;82.60;41.88;;;;;;;;;;5033788;28;20378;-58
2022/01/28 17:45:53;;;;;;;76.40;40.15;;;;;;;;;;5033955;28;20363;-62
2022/01/28 17:48:20;;;;;;;81.75;42.05;;;;;;;;;;5034119;28;20017;-61
2022/01/28 17:50:46;;;;;;;83.80;44.17;;;;;;;;;;5033459;28;20021;-63
2022/01/28 17:53:13;;;;;;;84.28;43.50;;;;;;;;;;5033889;28;20021;-60
2022/01/28 17:55:39;;;;;;;84.93;43.95;;;;;;;;;;5034049;28;20365;-62
2022/01/28 17:58:06;;;;;;;82.20;43.42;;;;;;;;;;5033636;28;20410;-62
2022/01/28 18:00:34;;;;;;;87.35;44.42;;;;;;;;;;5032864;28;20032;-57
2022/01/28 18:03:03;;;;;;;74.55;41.20;;;;;;;;;;5033830;28;20153;-58
2022/01/28 18:05:29;;;;;;;77.45;42.00;;;;;;;;;;5033193;28;20056;-56
2022/01/28 18:07:55;;;;;;;78.03;38.83;;;;;;;;;;5033361;28;20446;-61
2022/01/28 18:10:23;;;;;;;71.80;36.30;;;;;;;;;;5033326;28;20028;-60
2022/01/28 18:12:50;;;;;;;63.42;32.30;;;;;;;;;;5033179;28;20030;-61
2022/01/28 18:15:17;;;;;;;60.50;32.25;;;;;;;;;;5034582;28;20351;-59
2022/01/28 18:17:43;;;;;;;56.42;30.63;;;;;;;;;;5033101;28;20447;-55
2022/01/28 18:20:10;;;;;;;54.88;27.63;;;;;;;;;;5033119;28;20026;-60
2022/01/28 18:22:36;;;;;;;50.05;25.83;;;;;;;;;;5033620;28;20036;-60
2022/01/28 18:25:02;;;;;;;57.30;27.33;;;;;;;;;;5033379;28;20029;-60
2022/01/28 18:27:28;;;;;;;69.25;33.92;;;;;;;;;;5033612;28;20425;-60
2022/01/28 18:29:54;;;;;;;63.90;34.90;;;;;;;;;;5033463;28;20369;-56
2022/01/28 18:32:20;;;;;;;73.22;36.45;;;;;;;;;;5032970;28;20494;-58
2022/01/28 18:34:47;;;;;;;67.65;35.45;;;;;;;;;;5033638;28;20025;-60
2022/01/28 18:37:13;;;;;;;73.30;35.45;;;;;;;;;;5033517;28;20025;-60
2022/01/28 18:39:39;;;;;;;55.85;28.45;;;;;;;;;;5032957;28;20028;-61
2022/01/28 18:42:08;;;;;;;54.78;28.20;;;;;;;;;;5033458;28;20378;-61
2022/01/28 18:44:44;;;;;;;56.70;26.73;;;;;;;;;;5035259;28;20025;-58
2022/01/28 18:47:15;;;;;;;64.55;30.60;;;;;;;;;;5037595;28;20074;-59
2022/01/28 18:49:43;;;;;;;65.80;31.08;;;;;;;;;;5037438;28;20072;-56
2022/01/28 18:52:10;;;;;;;65.32;29.17;;;;;;;;;;5037416;28;20065;-60
2022/01/28 18:54:36;;;;;;;64.88;30.25;;;;;;;;;;5037148;28;20048;-60
2022/01/28 18:57:03;;;;;;;60.60;31.75;;;;;;;;;;5037073;28;20486;-58
2022/01/28 18:59:30;;;;;;;57.53;26.95;;;;;;;;;;5036971;28;20018;-59
2022/01/28 19:01:56;;;;;;;55.63;28.90;;;;;;;;;;5037211;28;20034;-59
2022/01/28 19:04:25;;;;;;;49.83;25.40;;;;;;;;;;5019442;28;20053;-61
2022/01/28 19:06:51;;;;;;;49.58;24.63;;;;;;;;;;5036864;28;20116;-61
2022/01/28 19:09:18;;;;;;;40.58;21.60;;;;;;;;;;5037025;28;20036;-60
2022/01/28 19:11:46;;;;;;;36.30;20.83;;;;;;;;;;5037009;28;20033;-59
2022/01/28 19:14:13;;;;;;;38.92;20.25;;;;;;;;;;5036422;28;20057;-61
2022/01/28 19:16:39;;;;;;;45.42;21.45;;;;;;;;;;5037006;28;20112;-57
2022/01/28 19:19:05;;;;;;;35.00;18.70;;;;;;;;;;5036956;28;20043;-59
2022/01/28 19:21:31;;;;;;;38.33;20.17;;;;;;;;;;5036588;28;20037;-60
2022/01/28 19:23:58;;;;;;;34.53;18.45;;;;;;;;;;5036517;28;20524;-60
2022/01/28 19:26:24;;;;;;;36.13;17.20;;;;;;;;;;5036539;28;20489;-58
2022/01/28 19:28:51;;;;;;;33.15;16.10;;;;;;;;;;5036163;28;20466;-63
2022/01/28 19:31:17;;;;;;;33.38;16.17;;;;;;;;;;5036594;28;20034;-62